Time;durP1;ratioP1;P1;durP2;ratioP2;P2;SDS_P1;SDS_P2;PMS_P1;PMS_P2;Temp;Humidity;BMP_temperature;BMP_pressure;BME280_temperature;BME280_humidity;BME280_pressure;Samples;Min_cycle;Max_cycle;Signal;HPM_P1;HPM_P2
2023/05/07 00:02:07;;;;;;;1.30;1.30;;;;;;;15.22;90.67;95386.53;4341771;32;20209;-54
2023/05/07 00:04:36;;;;;;;1.07;1.07;;;;;;;15.23;90.76;95380.09;4343225;32;20201;-55
2023/05/07 00:07:02;;;;;;;1.57;1.50;;;;;;;15.15;90.86;95380.91;4339554;32;20198;-58
2023/05/07 00:09:27;;;;;;;1.10;1.10;;;;;;;14.94;92.02;95378.94;4344276;32;20201;-58
2023/05/07 00:11:53;;;;;;;1.43;1.43;;;;;;;14.95;92.01;95377.06;4345224;32;20196;-57
2023/05/07 00:14:18;;;;;;;1.87;1.70;;;;;;;14.92;92.10;95383.03;4341045;32;20185;-58
2023/05/07 00:16:44;;;;;;;1.10;1.10;;;;;;;14.85;92.24;95383.50;4330676;32;20197;-58
2023/05/07 00:19:10;;;;;;;1.43;1.37;;;;;;;14.75;92.68;95381.97;4339712;32;20189;-58
2023/05/07 00:21:35;;;;;;;1.07;1.07;;;;;;;14.76;92.66;95388.06;4339781;32;20177;-58
2023/05/07 00:24:01;;;;;;;1.27;1.27;;;;;;;14.87;92.30;95380.53;4343530;32;20239;-58
2023/05/07 00:26:26;;;;;;;2.43;2.23;;;;;;;14.86;92.41;95379.75;4338126;32;20192;-59
2023/05/07 00:28:51;;;;;;;1.47;1.47;;;;;;;14.83;92.21;95385.72;4333863;32;20260;-58
2023/05/07 00:31:17;;;;;;;5.00;2.53;;;;;;;14.81;92.34;95373.78;4332268;32;20190;-57
2023/05/07 00:33:42;;;;;;;2.63;1.50;;;;;;;14.85;92.03;95375.50;4341622;32;20205;-58
2023/05/07 00:36:07;;;;;;;1.53;1.50;;;;;;;14.85;91.98;95372.81;4336459;32;20194;-58
2023/05/07 00:38:33;;;;;;;5.20;1.60;;;;;;;14.77;92.24;95371.72;4344928;32;20209;-58
2023/05/07 00:40:58;;;;;;;1.40;1.40;;;;;;;14.65;92.90;95368.16;4341598;32;20209;-57
2023/05/07 00:43:23;;;;;;;1.60;1.50;;;;;;;14.73;93.12;95370.03;4349568;32;20186;-57
2023/05/07 00:45:49;;;;;;;1.47;1.47;;;;;;;14.67;93.12;95372.09;4340622;32;20193;-57
2023/05/07 00:48:15;;;;;;;2.20;2.10;;;;;;;14.79;92.70;95368.75;4338467;32;20248;-57
2023/05/07 00:50:41;;;;;;;1.67;1.63;;;;;;;14.78;92.78;95372.53;4342288;32;20239;-57
2023/05/07 00:53:07;;;;;;;2.37;1.87;;;;;;;14.84;92.55;95378.47;4343861;32;20236;-60
2023/05/07 00:55:32;;;;;;;1.23;1.17;;;;;;;14.81;92.56;95369.22;4338446;32;20220;-57
2023/05/07 00:57:58;;;;;;;3.13;2.23;;;;;;;14.85;92.84;95374.72;4341151;32;20245;-57
2023/05/07 01:00:25;;;;;;;4.30;2.47;;;;;;;14.88;92.51;95361.50;4347859;32;20186;-55
2023/05/07 01:02:50;;;;;;;1.77;1.77;;;;;;;14.81;92.93;95377.22;4342194;32;20208;-57
2023/05/07 01:05:18;;;;;;;1.87;1.83;;;;;;;14.78;92.77;95375.97;4346840;32;20264;-58
2023/05/07 01:07:44;;;;;;;1.20;1.20;;;;;;;14.85;92.55;95375.50;4339259;32;20186;-58
2023/05/07 01:10:11;;;;;;;2.27;2.17;;;;;;;14.78;92.80;95377.88;4345112;32;20204;-58
2023/05/07 01:12:37;;;;;;;2.20;1.87;;;;;;;14.76;92.87;95369.38;4347293;32;20256;-58
2023/05/07 01:15:05;;;;;;;1.33;1.33;;;;;;;14.84;92.47;95373.94;4339747;32;20204;-58
2023/05/07 01:17:34;;;;;;;1.20;1.20;;;;;;;14.85;92.20;95372.03;4343946;32;20268;-61
2023/05/07 01:20:00;;;;;;;1.67;1.57;;;;;;;14.92;91.61;95378.47;4345605;32;20197;-60
2023/05/07 01:22:31;;;;;;;1.13;1.13;;;;;;;14.85;91.91;95374.72;4340825;32;20186;-60
2023/05/07 01:24:59;;;;;;;0.83;0.83;;;;;;;14.77;92.17;95371.72;4339084;32;20240;-59
2023/05/07 01:27:24;;;;;;;1.77;1.70;;;;;;;14.62;92.42;95376.81;4345349;32;20249;-60
2023/05/07 01:29:50;;;;;;;1.70;1.60;;;;;;;14.63;92.67;95370.38;4346812;32;20232;-60
2023/05/07 01:32:18;;;;;;;1.93;1.83;;;;;;;14.69;92.46;95371.78;4341946;32;21643;-60
2023/05/07 01:34:46;;;;;;;1.50;1.50;;;;;;;14.63;92.68;95365.03;4339428;32;20243;-58
2023/05/07 01:37:12;;;;;;;1.73;1.63;;;;;;;14.65;92.81;95362.81;4358324;32;20224;-58
2023/05/07 01:39:39;;;;;;;2.00;1.27;;;;;;;14.57;92.95;95356.38;4358728;32;20206;-58
2023/05/07 01:42:05;;;;;;;2.03;1.93;;;;;;;14.59;93.14;95356.06;4359535;32;20196;-60
2023/05/07 01:44:30;;;;;;;6.47;1.67;;;;;;;14.59;93.10;95361.41;4354826;32;20195;-59
2023/05/07 01:46:57;;;;;;;1.03;1.03;;;;;;;14.54;93.37;95358.94;4362467;32;20195;-60
2023/05/07 01:49:22;;;;;;;2.03;1.93;;;;;;;14.55;93.37;95360.50;4348446;32;20188;-58
2023/05/07 01:51:48;;;;;;;1.30;1.30;;;;;;;14.44;93.91;95360.81;4361616;32;20226;-58
2023/05/07 01:54:14;;;;;;;1.37;1.27;;;;;;;14.42;94.03;95355.00;4358567;32;20189;-58
2023/05/07 01:56:39;;;;;;;1.37;1.37;;;;;;;14.46;94.07;95349.03;4343063;32;20189;-57
2023/05/07 01:59:05;;;;;;;2.00;1.93;;;;;;;14.47;93.93;95355.94;4341352;32;20234;-57
2023/05/07 02:01:30;;;;;;;2.17;2.00;;;;;;;14.52;93.77;95359.25;4359968;32;20208;-57
2023/05/07 02:03:55;;;;;;;1.77;1.67;;;;;;;14.47;93.88;95348.72;4347154;32;20209;-58
2023/05/07 02:06:21;;;;;;;1.83;1.83;;;;;;;14.41;94.31;95358.78;4357698;32;20189;-58
2023/05/07 02:08:47;;;;;;;1.57;1.57;;;;;;;14.44;94.36;95363.50;4361537;32;20275;-58
2023/05/07 02:11:12;;;;;;;1.60;1.50;;;;;;;14.61;93.66;95361.88;4345763;32;20243;-58
2023/05/07 02:13:37;;;;;;;1.60;1.50;;;;;;;14.60;93.16;95361.09;4355607;32;20193;-57
2023/05/07 02:16:03;;;;;;;1.30;1.30;;;;;;;14.48;93.67;95360.97;4361742;32;20212;-58
2023/05/07 02:18:28;;;;;;;1.30;1.30;;;;;;;14.50;93.52;95358.78;4357497;32;20191;-57
2023/05/07 02:20:54;;;;;;;6.63;2.07;;;;;;;14.61;93.22;95354.66;4346011;32;20220;-57
2023/05/07 02:23:19;;;;;;;2.03;1.93;;;;;;;14.52;93.24;95361.13;4359814;32;20221;-58
2023/05/07 02:25:45;;;;;;;1.93;1.40;;;;;;;14.57;93.02;95355.59;4354646;32;20185;-58
2023/05/07 02:28:11;;;;;;;0.87;0.87;;;;;;;14.50;92.85;95360.66;4348588;32;20347;-55
2023/05/07 02:30:37;;;;;;;1.70;1.60;;;;;;;14.43;93.25;95361.91;4357928;32;20184;-58
2023/05/07 02:33:02;;;;;;;1.30;1.30;;;;;;;14.29;93.89;95366.63;4341948;32;20247;-57
2023/05/07 02:35:28;;;;;;;3.13;2.07;;;;;;;14.13;94.15;95357.53;4342606;32;20249;-57
2023/05/07 02:37:53;;;;;;;2.67;2.47;;;;;;;14.06;94.69;95365.22;4343759;32;20185;-57
2023/05/07 02:40:18;;;;;;;1.67;1.57;;;;;;;14.07;94.64;95367.56;4352666;32;20249;-59
2023/05/07 02:42:44;;;;;;;1.17;1.13;;;;;;;14.21;93.93;95358.59;4342906;32;20210;-59
2023/05/07 02:45:09;;;;;;;1.10;1.10;;;;;;;14.06;94.43;95363.31;4343976;32;20200;-60
2023/05/07 02:47:35;;;;;;;1.60;1.53;;;;;;;14.03;94.50;95369.28;4357809;32;20189;-59
2023/05/07 02:50:00;;;;;;;1.80;1.70;;;;;;;13.92;94.96;95357.38;4345606;32;20192;-58
2023/05/07 02:52:26;;;;;;;4.63;1.90;;;;;;;14.01;94.89;95362.69;4346868;32;20195;-60
2023/05/07 02:54:51;;;;;;;1.50;1.50;;;;;;;13.83;95.43;95358.44;4339428;32;20217;-60
2023/05/07 02:57:16;;;;;;;1.17;1.17;;;;;;;13.83;95.42;95361.91;4340334;32;20316;-60
2023/05/07 02:59:42;;;;;;;1.80;1.70;;;;;;;13.89;95.36;95367.87;4357712;32;20196;-60
2023/05/07 03:02:07;;;;;;;0.90;0.90;;;;;;;13.99;94.86;95365.66;4349947;32;20256;-59
2023/05/07 03:04:33;;;;;;;1.30;1.30;;;;;;;14.11;94.09;95367.72;4341192;32;20189;-59
2023/05/07 03:06:58;;;;;;;1.10;1.10;;;;;;;14.07;94.27;95359.56;4358084;32;20231;-60
2023/05/07 03:09:23;;;;;;;1.10;1.00;;;;;;;14.01;94.20;95358.16;4361581;32;20219;-59
2023/05/07 03:11:49;;;;;;;1.77;1.67;;;;;;;13.98;94.55;95365.97;4358764;32;20223;-57
2023/05/07 03:14:14;;;;;;;1.87;1.70;;;;;;;14.00;94.29;95364.56;4354996;32;20182;-57
2023/05/07 03:16:40;;;;;;;0.83;0.83;;;;;;;13.94;94.22;95362.38;4362888;32;20196;-57
2023/05/07 03:19:05;;;;;;;2.00;1.90;;;;;;;13.97;94.18;95361.75;4353991;32;20276;-57
2023/05/07 03:21:33;;;;;;;1.10;1.10;;;;;;;13.80;94.55;95365.19;4342588;32;20177;-57
2023/05/07 03:23:59;;;;;;;0.60;0.60;;;;;;;13.69;95.12;95362.06;4347344;32;20253;-59
2023/05/07 03:26:25;;;;;;;1.10;1.10;;;;;;;13.72;95.20;95355.28;4343127;32;20185;-59
2023/05/07 03:28:50;;;;;;;0.90;0.90;;;;;;;13.80;94.97;95348.41;4351932;32;20242;-59
2023/05/07 03:31:16;;;;;;;1.13;1.13;;;;;;;13.76;95.09;95350.91;4354960;32;20371;-59
2023/05/07 03:33:55;;;;;;;1.53;1.53;;;;;;;13.63;95.61;95351.84;4359285;32;20229;-55
2023/05/07 03:36:22;;;;;;;1.47;1.37;;;;;;;13.76;95.06;95345.56;4354740;32;20188;-59
2023/05/07 03:38:48;;;;;;;0.60;0.60;;;;;;;13.69;95.56;95353.28;4358103;32;20236;-58
2023/05/07 03:41:14;;;;;;;0.80;0.80;;;;;;;13.84;94.60;95352.03;4345553;32;20189;-58
2023/05/07 03:43:39;;;;;;;1.00;1.00;;;;;;;13.91;94.28;95355.00;4344503;32;20181;-57
2023/05/07 03:46:05;;;;;;;0.83;0.80;;;;;;;13.83;94.54;95347.78;4330660;32;20184;-57
2023/05/07 03:48:30;;;;;;;1.70;1.60;;;;;;;13.90;93.97;95356.12;4336360;32;20184;-57
2023/05/07 03:50:57;;;;;;;4.57;1.33;;;;;;;13.87;94.25;95348.72;4344660;32;20193;-56
2023/05/07 03:53:22;;;;;;;2.10;2.00;;;;;;;13.82;94.75;95354.22;4358195;32;20220;-56
2023/05/07 03:55:47;;;;;;;1.00;1.00;;;;;;;13.80;94.62;95359.06;4348368;32;20180;-60
2023/05/07 03:58:12;;;;;;;1.00;1.00;;;;;;;13.74;94.62;95355.75;4345589;32;20188;-60
2023/05/07 04:00:39;;;;;;;1.13;1.03;;;;;;;13.87;94.46;95354.06;4341840;32;20178;-57
2023/05/07 04:03:05;;;;;;;1.37;1.30;;;;;;;13.83;94.59;95353.13;4345200;32;20181;-59
2023/05/07 04:05:31;;;;;;;1.30;1.17;;;;;;;13.72;94.99;95353.41;4362849;32;20173;-60
2023/05/07 04:07:58;;;;;;;1.20;1.20;;;;;;;13.71;94.91;95362.53;4357653;32;20250;-57
2023/05/07 04:10:23;;;;;;;0.80;0.80;;;;;;;13.73;95.09;95370.19;4361683;32;20195;-57
2023/05/07 04:12:48;;;;;;;1.17;1.17;;;;;;;13.83;94.25;95374.44;4348503;32;20189;-56
2023/05/07 04:15:14;;;;;;;7.77;1.00;;;;;;;13.90;94.14;95372.13;4358966;32;20181;-56
2023/05/07 04:17:41;;;;;;;1.10;1.10;;;;;;;13.87;93.95;95375.41;4346650;32;20269;-57
2023/05/07 04:20:08;;;;;;;1.27;1.17;;;;;;;13.92;93.62;95373.38;4345288;32;20197;-57
2023/05/07 04:22:34;;;;;;;1.77;1.67;;;;;;;13.88;93.83;95371.62;4347976;32;20199;-60
2023/05/07 04:25:00;;;;;;;7.50;1.20;;;;;;;13.89;93.74;95382.00;4351308;32;20181;-60
2023/05/07 04:27:26;;;;;;;4.10;1.63;;;;;;;13.83;94.19;95385.13;4347811;32;20247;-58
2023/05/07 04:29:55;;;;;;;0.90;0.90;;;;;;;13.83;94.26;95385.91;4358284;32;20203;-60
2023/05/07 04:32:21;;;;;;;0.80;0.80;;;;;;;13.79;94.32;95389.50;4360528;32;20181;-60
2023/05/07 04:34:46;;;;;;;1.00;1.00;;;;;;;13.86;94.33;95385.28;4347887;32;20311;-58
2023/05/07 04:37:12;;;;;;;1.30;1.30;;;;;;;13.86;93.88;95387.94;4360956;32;20235;-57
2023/05/07 04:39:39;;;;;;;1.47;1.37;;;;;;;13.69;94.96;95386.03;4348312;32;20198;-59
2023/05/07 04:42:08;;;;;;;1.10;1.03;;;;;;;13.82;94.64;95388.88;4345313;32;20185;-57
2023/05/07 04:44:34;;;;;;;1.00;1.00;;;;;;;13.82;94.38;95383.53;4347417;32;20201;-57
2023/05/07 04:47:00;;;;;;;1.23;1.17;;;;;;;13.94;94.04;95383.69;4354421;32;20212;-56
2023/05/07 04:49:25;;;;;;;0.97;0.97;;;;;;;13.97;93.84;95381.19;4342832;32;20181;-57
2023/05/07 04:51:50;;;;;;;0.90;0.90;;;;;;;14.08;93.61;95381.69;4359237;32;20215;-57
2023/05/07 04:54:16;;;;;;;0.87;0.87;;;;;;;14.04;93.60;95381.53;4352425;32;20268;-59
2023/05/07 04:56:41;;;;;;;3.27;1.33;;;;;;;13.98;93.78;95382.78;4345061;32;20238;-59
2023/05/07 04:59:06;;;;;;;1.00;1.00;;;;;;;14.02;93.93;95382.94;4345115;32;20253;-57
2023/05/07 05:01:32;;;;;;;6.60;1.17;;;;;;;14.00;93.63;95387.78;4345303;32;20232;-57
2023/05/07 05:03:59;;;;;;;1.20;1.10;;;;;;;13.99;93.61;95392.34;4357970;32;20200;-59
2023/05/07 05:06:26;;;;;;;5.10;1.00;;;;;;;13.99;93.59;95386.22;4357314;32;20302;-55
2023/05/07 05:08:51;;;;;;;0.67;0.67;;;;;;;14.05;93.58;95398.31;4360556;32;20227;-57
2023/05/07 05:11:17;;;;;;;1.20;1.20;;;;;;;14.01;93.56;95392.81;4358534;32;20260;-55
2023/05/07 05:13:42;;;;;;;1.07;1.07;;;;;;;14.13;93.16;95402.09;4356509;32;20196;-59
2023/05/07 05:16:07;;;;;;;1.20;1.20;;;;;;;14.07;93.17;95396.91;4343293;32;20205;-59
2023/05/07 05:18:33;;;;;;;1.33;1.33;;;;;;;13.98;93.69;95395.31;4347511;32;20197;-58
2023/05/07 05:20:58;;;;;;;1.40;1.40;;;;;;;14.02;93.78;95399.72;4345446;32;20177;-57
2023/05/07 05:23:23;;;;;;;1.00;1.00;;;;;;;13.99;94.22;95392.34;4341844;32;20181;-59
2023/05/07 05:25:49;;;;;;;1.83;1.73;;;;;;;14.11;94.11;95389.06;4341553;32;20199;-59
2023/05/07 05:28:14;;;;;;;1.83;1.70;;;;;;;14.08;93.79;95389.69;4361683;32;20250;-57
2023/05/07 05:30:40;;;;;;;0.70;0.70;;;;;;;14.10;93.63;95390.97;4346037;32;20204;-57
2023/05/07 05:33:05;;;;;;;1.73;1.27;;;;;;;14.10;93.27;95390.97;4360686;32;20177;-57
2023/05/07 05:35:31;;;;;;;1.60;1.50;;;;;;;14.07;93.70;95398.78;4353427;32;20230;-58
2023/05/07 05:37:57;;;;;;;1.00;0.93;;;;;;;14.06;94.00;95389.22;4360035;32;20173;-57
2023/05/07 05:40:22;;;;;;;1.97;0.90;;;;;;;14.24;93.45;95393.47;4361327;32;20204;-57
2023/05/07 05:42:47;;;;;;;0.67;0.67;;;;;;;14.12;94.22;95398.66;4345960;32;20204;-57
2023/05/07 05:45:12;;;;;;;1.13;1.13;;;;;;;14.10;94.27;95404.28;4353952;32;20210;-57
2023/05/07 05:47:39;;;;;;;0.60;0.60;;;;;;;14.12;94.58;95401.31;4341952;32;20200;-54
2023/05/07 05:50:06;;;;;;;1.90;1.10;;;;;;;14.07;94.74;95396.91;4339214;32;20232;-54
2023/05/07 05:52:31;;;;;;;1.70;1.60;;;;;;;14.21;94.64;95399.41;4340636;32;20252;-57
2023/05/07 05:54:56;;;;;;;1.40;1.30;;;;;;;14.28;94.58;95397.06;4341335;32;20174;-57
2023/05/07 05:57:22;;;;;;;0.93;0.93;;;;;;;14.36;94.44;95398.94;4353534;32;20204;-56
2023/05/07 05:59:47;;;;;;;1.43;1.43;;;;;;;14.47;94.35;95393.31;4351237;32;20229;-56
2023/05/07 06:02:12;;;;;;;1.10;1.10;;;;;;;14.52;94.10;95393.94;4358256;32;20203;-58
2023/05/07 06:04:38;;;;;;;0.73;0.73;;;;;;;14.55;93.94;95392.53;4355939;32;20200;-59
2023/05/07 06:07:03;;;;;;;1.53;1.43;;;;;;;14.61;94.20;95393.94;4359834;32;20227;-58
2023/05/07 06:09:28;;;;;;;1.17;1.17;;;;;;;14.63;94.11;95402.41;4359351;32;20181;-59
2023/05/07 06:11:54;;;;;;;1.23;1.13;;;;;;;14.66;94.51;95389.22;4340105;32;20181;-56
2023/05/07 06:14:19;;;;;;;1.63;1.30;;;;;;;14.78;93.95;95396.56;4360166;32;20203;-57
2023/05/07 06:16:44;;;;;;;0.67;0.67;;;;;;;14.90;93.78;95388.69;4360126;32;20193;-56
2023/05/07 06:19:10;;;;;;;1.10;1.10;;;;;;;14.92;93.97;95386.50;4340931;32;20189;-58
2023/05/07 06:21:35;;;;;;;1.03;1.03;;;;;;;14.99;94.08;95399.34;4341756;32;20185;-57
2023/05/07 06:24:00;;;;;;;1.50;1.27;;;;;;;15.16;93.82;95399.31;4344748;32;20244;-57
2023/05/07 06:26:26;;;;;;;0.87;0.87;;;;;;;15.22;93.33;95398.00;4342198;32;20189;-57
2023/05/07 06:28:51;;;;;;;4.47;1.13;;;;;;;15.34;92.66;95395.47;4341202;32;20174;-57
2023/05/07 06:31:21;;;;;;;0.77;0.77;;;;;;;15.36;92.78;95400.47;4353804;32;20260;-57
2023/05/07 06:33:46;;;;;;;0.73;0.73;;;;;;;15.52;91.53;95390.81;4342262;32;20185;-58
2023/05/07 06:36:12;;;;;;;1.23;1.23;;;;;;;15.61;90.79;95388.88;4361800;32;20229;-57
2023/05/07 06:38:38;;;;;;;0.97;0.97;;;;;;;15.75;90.32;95394.81;4354913;32;20196;-59
2023/05/07 06:41:03;;;;;;;0.73;0.73;;;;;;;15.90;89.65;95396.13;4344233;32;20209;-58
2023/05/07 06:43:28;;;;;;;1.03;1.03;;;;;;;15.91;90.64;95403.03;4360378;32;20192;-57
2023/05/07 06:45:54;;;;;;;1.33;1.00;;;;;;;16.07;90.35;95406.69;4355605;32;20186;-57
2023/05/07 06:48:19;;;;;;;1.33;1.33;;;;;;;16.12;89.46;95414.53;4344035;32;20192;-56
2023/05/07 06:50:44;;;;;;;1.40;1.30;;;;;;;16.28;87.58;95412.06;4357759;32;20249;-58
2023/05/07 06:53:10;;;;;;;1.00;1.00;;;;;;;16.38;86.90;95408.22;4343867;32;20203;-57
2023/05/07 06:55:37;;;;;;;0.73;0.73;;;;;;;16.47;86.20;95409.69;4360364;32;20185;-55
2023/05/07 06:58:03;;;;;;;0.83;0.83;;;;;;;16.64;85.17;95410.69;4342299;32;20228;-55
2023/05/07 07:00:28;;;;;;;0.70;0.70;;;;;;;16.78;84.61;95403.16;4355005;32;20253;-57
2023/05/07 07:02:54;;;;;;;0.87;0.87;;;;;;;16.88;84.65;95407.31;4360468;32;20237;-57
2023/05/07 07:05:20;;;;;;;2.30;1.33;;;;;;;16.97;84.19;95414.16;4333482;32;20335;-55
2023/05/07 07:07:52;;;;;;;4.93;1.37;;;;;;;17.03;84.38;95414.75;4348328;32;20235;-58
2023/05/07 07:10:20;;;;;;;0.50;0.50;;;;;;;17.12;84.77;95410.84;4339434;32;20321;-60
2023/05/07 07:12:45;;;;;;;2.27;2.07;;;;;;;17.13;84.73;95415.09;4355672;32;20222;-59
2023/05/07 07:15:11;;;;;;;1.20;1.17;;;;;;;17.23;83.55;95407.75;4343030;32;20231;-59
2023/05/07 07:17:36;;;;;;;1.10;1.10;;;;;;;17.25;83.08;95416.25;4356799;32;20275;-56
2023/05/07 07:20:02;;;;;;;2.60;1.27;;;;;;;17.25;83.70;95413.56;4347904;32;20228;-58
2023/05/07 07:22:28;;;;;;;0.70;0.70;;;;;;;17.37;81.65;95410.88;4358973;32;20185;-59
2023/05/07 07:24:53;;;;;;;0.83;0.83;;;;;;;17.43;81.03;95401.50;4356732;32;20263;-57
2023/05/07 07:27:19;;;;;;;1.50;1.40;;;;;;;17.40;81.65;95408.31;4347405;32;20177;-58
2023/05/07 07:29:44;;;;;;;1.10;1.10;;;;;;;17.52;80.81;95410.22;4339012;32;20192;-57
2023/05/07 07:32:10;;;;;;;0.73;0.73;;;;;;;17.59;80.40;95409.66;4355639;32;20207;-58
2023/05/07 07:34:35;;;;;;;1.00;1.00;;;;;;;17.67;80.66;95406.88;4342681;32;20216;-56
2023/05/07 07:37:05;;;;;;;1.17;1.17;;;;;;;17.70;80.64;95416.94;4354641;32;20188;-57
2023/05/07 07:39:31;;;;;;;0.83;0.83;;;;;;;17.78;80.71;95408.00;4345955;32;20189;-58
2023/05/07 07:41:56;;;;;;;0.60;0.60;;;;;;;17.80;81.89;95413.03;4352024;32;20184;-56
2023/05/07 07:44:21;;;;;;;0.90;0.90;;;;;;;17.83;81.72;95415.06;4344084;32;20271;-60
2023/05/07 07:46:47;;;;;;;0.90;0.90;;;;;;;17.87;79.96;95418.63;4341721;32;20338;-57
2023/05/07 07:49:12;;;;;;;1.30;1.20;;;;;;;17.89;79.06;95420.97;4346763;32;20246;-56
2023/05/07 07:51:37;;;;;;;1.70;0.90;;;;;;;17.87;79.25;95415.16;4354897;32;20196;-56
2023/05/07 07:54:03;;;;;;;0.63;0.63;;;;;;;17.90;80.05;95419.84;4346436;32;20204;-55
2023/05/07 07:56:28;;;;;;;1.33;1.33;;;;;;;18.02;79.85;95417.94;4356487;32;20220;-57
2023/05/07 07:58:54;;;;;;;0.40;0.40;;;;;;;18.06;79.18;95418.84;4358265;32;20193;-57
2023/05/07 08:01:19;;;;;;;0.83;0.83;;;;;;;18.01;80.59;95421.75;4346604;32;20239;-56
2023/05/07 08:03:45;;;;;;;0.97;0.87;;;;;;;18.10;79.56;95418.91;4363011;32;20243;-53
2023/05/07 08:06:10;;;;;;;0.30;0.30;;;;;;;18.20;85.85;95418.47;4349802;32;20295;-54
2023/05/07 08:08:35;;;;;;;0.93;0.93;;;;;;;18.39;86.60;95415.94;4356170;32;20181;-51
2023/05/07 08:11:01;;;;;;;0.77;0.77;;;;;;;18.49;85.73;95423.53;4359377;32;20242;-51
2023/05/07 08:13:27;;;;;;;1.00;1.00;;;;;;;18.48;81.24;95418.50;4342937;32;20300;-51
2023/05/07 08:15:52;;;;;;;0.80;0.80;;;;;;;18.44;81.61;95418.41;4362349;32;20223;-53
2023/05/07 08:18:17;;;;;;;2.00;1.23;;;;;;;18.51;80.07;95418.59;4356029;32;20299;-49
2023/05/07 08:20:43;;;;;;;0.37;0.37;;;;;;;18.35;80.17;95417.75;4359513;32;20200;-52
2023/05/07 08:23:08;;;;;;;0.97;0.67;;;;;;;18.47;77.99;95423.09;4341180;32;20193;-48
2023/05/07 08:25:34;;;;;;;1.50;1.40;;;;;;;18.58;79.32;95423.38;4358033;32;20192;-53
2023/05/07 08:28:00;;;;;;;0.50;0.50;;;;;;;18.53;77.76;95424.41;4354307;32;20177;-54
2023/05/07 08:30:25;;;;;;;0.70;0.70;;;;;;;18.60;76.72;95431.16;4350283;32;20197;-54
2023/05/07 08:32:51;;;;;;;2.53;2.33;;;;;;;18.64;76.39;95422.06;4356427;32;20185;-50
2023/05/07 08:35:16;;;;;;;1.60;1.60;;;;;;;18.65;74.57;95426.31;4362067;32;20194;-53
2023/05/07 08:37:41;;;;;;;1.57;1.57;;;;;;;18.62;74.26;95424.31;4358144;32;20177;-51
2023/05/07 08:40:07;;;;;;;1.27;0.90;;;;;;;18.59;74.98;95426.88;4360827;32;20200;-54
2023/05/07 08:42:36;;;;;;;1.57;1.57;;;;;;;18.66;72.63;95429.78;4346880;32;20225;-53
2023/05/07 08:45:05;;;;;;;1.53;1.50;;;;;;;18.68;73.74;95430.22;4346913;32;20265;-51
2023/05/07 08:47:42;;;;;;;1.70;1.57;;;;;;;18.78;74.71;95427.03;4345950;32;20201;-51
2023/05/07 08:50:07;;;;;;;1.57;1.47;;;;;;;18.87;73.90;95431.16;4346373;32;20188;-53
2023/05/07 08:52:33;;;;;;;1.93;1.83;;;;;;;18.92;75.13;95427.41;4344365;32;20304;-50
2023/05/07 08:54:59;;;;;;;0.97;0.97;;;;;;;18.80;73.97;95432.84;4338890;32;20218;-53
2023/05/07 08:57:25;;;;;;;1.00;1.00;;;;;;;18.99;72.81;95430.31;4357965;32;20181;-54
2023/05/07 08:59:50;;;;;;;4.80;1.80;;;;;;;18.75;72.54;95433.88;4356901;32;20227;-51
2023/05/07 09:02:16;;;;;;;0.50;0.50;;;;;;;18.92;73.29;95432.00;4337804;32;20306;-53
2023/05/07 09:04:42;;;;;;;0.80;0.80;;;;;;;18.94;73.41;95435.13;4347224;32;20185;-52
2023/05/07 09:07:07;;;;;;;0.77;0.50;;;;;;;18.87;72.95;95435.75;4360164;32;20242;-50
2023/05/07 09:09:33;;;;;;;2.47;1.27;;;;;;;18.93;73.66;95438.94;4363257;32;20216;-50
2023/05/07 09:11:59;;;;;;;0.50;0.50;;;;;;;19.05;72.89;95447.75;4346740;32;20181;-51
2023/05/07 09:14:24;;;;;;;0.80;0.80;;;;;;;18.95;73.40;95434.78;4364653;32;20169;-54
2023/05/07 09:16:52;;;;;;;0.30;0.30;;;;;;;18.99;71.05;95437.59;4348547;32;20256;-51
2023/05/07 09:19:25;;;;;;;1.70;1.10;;;;;;;19.16;71.88;95434.56;4334962;32;20185;-53
2023/05/07 09:21:59;;;;;;;2.77;1.70;;;;;;;19.22;71.62;95439.38;4360355;32;20181;-53
2023/05/07 09:24:24;;;;;;;0.93;0.93;;;;;;;19.05;71.67;95431.62;4356536;32;20223;-52
2023/05/07 09:26:50;;;;;;;5.43;1.83;;;;;;;19.22;72.04;95425.12;4358311;32;20271;-53
2023/05/07 09:29:59;;;;;;;0.87;0.87;;;;;;;19.33;72.79;95414.66;4342452;32;20177;-53
2023/05/07 09:32:25;;;;;;;0.77;0.77;;;;;;;19.58;70.44;95413.37;4340474;32;20255;-51
2023/05/07 09:34:51;;;;;;;0.67;0.67;;;;;;;19.37;71.66;95418.19;4344012;32;20181;-50
2023/05/07 09:37:17;;;;;;;0.93;0.93;;;;;;;19.43;72.50;95422.97;4338866;32;20199;-53
2023/05/07 09:39:44;;;;;;;0.77;0.77;;;;;;;19.65;70.19;95418.94;4359737;32;20185;-55
2023/05/07 09:42:20;;;;;;;0.87;0.87;;;;;;;19.74;68.60;95422.25;4353601;32;20177;-54
2023/05/07 09:44:46;;;;;;;0.60;0.60;;;;;;;19.77;69.96;95416.12;4339303;32;20177;-51
2023/05/07 09:47:19;;;;;;;0.63;0.63;;;;;;;19.94;68.49;95427.69;4335418;32;20182;-50
2023/05/07 09:49:47;;;;;;;1.23;0.80;;;;;;;19.74;68.64;95419.53;4360917;32;20200;-51
2023/05/07 09:52:13;;;;;;;0.53;0.53;;;;;;;19.84;68.57;95413.59;4355253;32;20225;-53
2023/05/07 09:54:42;;;;;;;0.43;0.27;;;;;;;19.98;65.59;95421.22;4345857;32;20190;-52
2023/05/07 09:57:10;;;;;;;0.30;0.30;;;;;;;19.83;64.58;95411.25;4342950;32;20251;-53
2023/05/07 09:59:38;;;;;;;0.60;0.60;;;;;;;19.81;65.75;95408.12;4353029;32;20181;-50
2023/05/07 10:02:04;;;;;;;0.60;0.60;;;;;;;19.83;65.66;95417.44;4356627;32;20214;-54
2023/05/07 10:04:31;;;;;;;0.30;0.30;;;;;;;19.90;66.28;95412.22;4355027;32;20207;-52
2023/05/07 10:06:56;;;;;;;0.60;0.60;;;;;;;19.97;66.39;95408.09;4357456;32;20181;-54
2023/05/07 10:09:22;;;;;;;0.37;0.37;;;;;;;19.96;65.90;95403.84;4358741;32;20199;-51
2023/05/07 10:11:51;;;;;;;0.73;0.63;;;;;;;20.07;63.90;95415.66;4356775;32;20241;-53
2023/05/07 10:14:17;;;;;;;0.80;0.80;;;;;;;19.86;63.91;95424.03;4357767;32;20178;-53
2023/05/07 10:16:43;;;;;;;1.47;1.13;;;;;;;19.99;63.41;95424.69;4358838;32;20265;-53
2023/05/07 10:19:11;;;;;;;0.67;0.67;;;;;;;20.00;63.72;95426.25;4357973;32;20193;-51
2023/05/07 10:21:38;;;;;;;0.30;0.30;;;;;;;19.96;63.04;95423.47;4341774;32;20235;-51
2023/05/07 10:24:16;;;;;;;0.70;0.70;;;;;;;19.78;64.31;95414.22;4355632;32;20236;-52
2023/05/07 10:26:45;;;;;;;0.60;0.60;;;;;;;19.80;64.75;95418.13;4344749;32;20185;-52
2023/05/07 10:29:52;;;;;;;0.60;0.60;;;;;;;19.83;65.14;95414.75;4341103;32;20184;-53
2023/05/07 10:32:32;;;;;;;0.30;0.30;;;;;;;19.71;64.50;95422.94;4358990;32;20203;-51
2023/05/07 10:35:02;;;;;;;1.87;1.07;;;;;;;19.73;63.46;95415.28;4353605;32;20192;-60
2023/05/07 10:37:29;;;;;;;0.40;0.40;;;;;;;19.80;62.65;95428.13;4360816;32;20185;-58
2023/05/07 10:39:54;;;;;;;0.30;0.30;;;;;;;19.94;61.64;95422.28;4345861;32;20200;-53
2023/05/07 10:42:20;;;;;;;0.60;0.60;;;;;;;19.96;61.10;95426.19;4338675;32;20243;-53
2023/05/07 10:44:45;;;;;;;0.37;0.37;;;;;;;19.98;60.60;95423.13;4354286;32;20189;-52
2023/05/07 10:47:12;;;;;;;0.40;0.40;;;;;;;20.02;61.59;95421.31;4359078;32;20254;-53
2023/05/07 10:49:44;;;;;;;0.83;0.83;;;;;;;20.04;61.53;95419.84;4345728;32;20180;-51
2023/05/07 10:52:16;;;;;;;0.43;0.43;;;;;;;20.10;60.94;95418.44;4358247;32;20181;-51
2023/05/07 10:54:44;;;;;;;0.37;0.37;;;;;;;20.07;60.95;95419.13;4343621;32;20235;-48
2023/05/07 10:57:38;;;;;;;0.50;0.50;;;;;;;20.14;60.26;95421.22;4332442;32;20215;-52
2023/05/07 11:00:24;;;;;;;0.67;0.67;;;;;;;20.09;62.12;95419.56;4337295;32;20220;-47
2023/05/07 11:03:01;;;;;;;0.13;0.13;;;;;;;20.09;62.49;95424.16;4339179;32;20197;-50
2023/05/07 11:05:29;;;;;;;0.40;0.40;;;;;;;20.12;62.97;95423.47;4346794;32;20199;-51
2023/05/07 11:07:59;;;;;;;0.67;0.67;;;;;;;20.16;62.02;95418.94;4345194;32;20185;-52
2023/05/07 11:10:49;;;;;;;1.30;1.17;;;;;;;20.16;63.26;95414.31;4345340;32;20203;-52
2023/05/07 11:13:16;;;;;;;2.77;0.60;;;;;;;20.22;64.14;95431.00;4360267;32;20184;-52
2023/05/07 11:15:44;;;;;;;0.40;0.40;;;;;;;20.18;65.04;95416.66;4344843;32;20220;-52
2023/05/07 11:18:10;;;;;;;0.30;0.30;;;;;;;20.19;65.08;95408.22;4353496;32;20268;-52
2023/05/07 11:20:45;;;;;;;6.80;1.53;;;;;;;20.17;65.68;95407.00;4358380;32;20242;-52
2023/05/07 11:23:32;;;;;;;0.90;0.90;;;;;;;20.21;65.76;95407.88;4356590;32;20184;-51
2023/05/07 11:26:03;;;;;;;0.97;0.97;;;;;;;20.31;65.69;95409.25;4342958;32;20199;-60
2023/05/07 11:28:29;;;;;;;0.83;0.83;;;;;;;20.30;66.18;95402.28;4345788;32;20185;-59
2023/05/07 11:30:56;;;;;;;0.87;0.87;;;;;;;20.29;66.54;95406.91;4335948;32;20203;-49
2023/05/07 11:33:22;;;;;;;0.70;0.70;;;;;;;20.35;65.27;95405.50;4352346;32;20190;-51